createdAt,value
2018-08-03T00:01:06.591Z,3.10
2018-08-03T00:03:33.475Z,2.97
2018-08-03T00:06:00.167Z,3.17
2018-08-03T00:08:26.992Z,3.20
2018-08-03T00:10:53.905Z,3.00
2018-08-03T00:13:20.851Z,3.10
2018-08-03T00:15:47.803Z,2.93
2018-08-03T00:18:14.740Z,3.20
2018-08-03T00:20:41.495Z,3.00
2018-08-03T00:23:08.371Z,2.90
2018-08-03T00:25:35.211Z,3.10
2018-08-03T00:28:01.956Z,2.93
2018-08-03T00:30:28.975Z,3.00
2018-08-03T00:32:55.800Z,2.93
2018-08-03T00:35:22.562Z,3.33
2018-08-03T00:37:49.336Z,3.07
2018-08-03T00:40:16.106Z,3.47
2018-08-03T00:42:42.978Z,2.87
2018-08-03T00:45:09.832Z,2.90
2018-08-03T00:47:36.672Z,2.70
2018-08-03T00:50:03.447Z,3.13
2018-08-03T00:52:30.210Z,2.70
2018-08-03T00:54:57.320Z,2.77
2018-08-03T00:57:23.990Z,3.07
2018-08-03T00:59:50.756Z,2.70
2018-08-03T01:02:17.458Z,3.10
2018-08-03T01:04:44.183Z,3.13
2018-08-03T01:07:10.848Z,3.00
2018-08-03T01:09:37.572Z,3.03
2018-08-03T01:12:04.314Z,2.70
2018-08-03T01:14:31.048Z,3.10
2018-08-03T01:16:57.785Z,3.30
2018-08-03T01:19:24.640Z,3.30
2018-08-03T01:21:51.488Z,3.13
2018-08-03T01:24:18.409Z,3.20
2018-08-03T01:26:45.158Z,3.10
2018-08-03T01:29:11.956Z,3.70
2018-08-03T01:31:38.898Z,3.83
2018-08-03T01:34:05.755Z,3.57
2018-08-03T01:36:32.524Z,3.57
2018-08-03T01:38:59.514Z,3.50
2018-08-03T01:41:26.386Z,3.80
2018-08-03T01:43:53.278Z,3.47
2018-08-03T01:46:20.106Z,3.70
2018-08-03T01:48:46.968Z,3.67
2018-08-03T01:51:13.862Z,3.20
2018-08-03T01:53:41.012Z,3.30
2018-08-03T01:56:08.715Z,3.10
2018-08-03T01:58:36.061Z,3.27
2018-08-03T02:01:02.829Z,3.47
2018-08-03T02:03:29.780Z,3.37
2018-08-03T02:05:57.493Z,3.50
2018-08-03T02:08:24.325Z,3.13
2018-08-03T02:10:51.041Z,3.30
2018-08-03T02:13:18.747Z,3.77
2018-08-03T02:15:45.656Z,3.67
2018-08-03T02:18:12.557Z,3.20
2018-08-03T02:20:39.362Z,3.43
2018-08-03T02:23:06.371Z,3.70
2018-08-03T02:25:33.130Z,3.60
2018-08-03T02:28:00.071Z,3.60
2018-08-03T02:30:26.839Z,3.53
2018-08-03T02:32:53.599Z,3.70
2018-08-03T02:35:20.303Z,4.10
2018-08-03T02:37:47.101Z,3.73
2018-08-03T02:40:14.069Z,4.30
2018-08-03T02:42:40.889Z,3.90
2018-08-03T02:45:07.683Z,3.50
2018-08-03T02:47:34.450Z,4.13
2018-08-03T02:50:01.227Z,4.00
2018-08-03T02:52:28.055Z,4.37
2018-08-03T02:54:54.896Z,4.47
2018-08-03T02:57:21.650Z,3.97
2018-08-03T02:59:48.434Z,3.83
2018-08-03T03:02:15.219Z,3.90
2018-08-03T03:04:42.050Z,3.70
2018-08-03T03:07:08.960Z,3.90
2018-08-03T03:09:35.746Z,3.63
2018-08-03T03:12:02.546Z,4.50
2018-08-03T03:14:29.352Z,4.07
2018-08-03T03:16:56.194Z,4.30
2018-08-03T03:19:23.070Z,4.00
2018-08-03T03:21:50.361Z,4.07
2018-08-03T03:24:17.105Z,4.20
2018-08-03T03:26:44.318Z,4.07
2018-08-03T03:29:11.036Z,4.27
2018-08-03T03:31:38.036Z,4.20
2018-08-03T03:34:04.903Z,4.30
2018-08-03T03:36:41.642Z,4.33
2018-08-03T03:39:08.487Z,4.13
2018-08-03T03:41:35.517Z,4.57
2018-08-03T03:44:02.386Z,4.53
2018-08-03T03:46:29.209Z,4.57
2018-08-03T03:48:56.171Z,4.57
2018-08-03T03:51:23.118Z,5.30
2018-08-03T03:53:49.973Z,4.67
2018-08-03T03:56:16.849Z,5.10
2018-08-03T03:58:44.361Z,4.90
2018-08-03T04:01:12.145Z,4.53
2018-08-03T04:03:39.283Z,4.70
2018-08-03T04:06:06.165Z,4.87
2018-08-03T04:08:33.713Z,4.97
2018-08-03T04:11:01.082Z,5.40
2018-08-03T04:13:27.893Z,4.50
2018-08-03T04:15:54.727Z,4.97
2018-08-03T04:18:22.175Z,5.53
2018-08-03T04:20:49.902Z,4.57
2018-08-03T04:23:16.987Z,5.03
2018-08-03T04:25:44.021Z,5.20
2018-08-03T04:28:11.005Z,4.87
2018-08-03T04:30:38.062Z,5.17
2018-08-03T04:33:05.068Z,5.03
2018-08-03T04:35:33.822Z,5.07
2018-08-03T04:38:01.352Z,5.23
2018-08-03T04:40:28.230Z,5.13
2018-08-03T04:42:56.099Z,4.83
2018-08-03T04:45:23.598Z,5.63
2018-08-03T04:47:51.142Z,5.17
2018-08-03T04:50:18.074Z,4.80
2018-08-03T04:52:45.041Z,5.30
2018-08-03T04:55:11.961Z,5.10
2018-08-03T04:57:38.901Z,5.17
2018-08-03T05:00:06.871Z,5.60
2018-08-03T05:02:33.640Z,5.37
2018-08-03T05:05:00.684Z,5.73
2018-08-03T05:07:27.584Z,5.83
2018-08-03T05:09:55.262Z,5.30
2018-08-03T05:12:22.152Z,5.30
2018-08-03T05:14:48.897Z,6.07
2018-08-03T05:17:15.808Z,5.77
2018-08-03T05:19:42.585Z,5.83
2018-08-03T05:22:09.348Z,5.97
2018-08-03T05:24:36.188Z,5.87
2018-08-03T05:27:03.985Z,6.03
2018-08-03T05:29:30.819Z,5.73
2018-08-03T05:31:57.588Z,6.17
2018-08-03T05:34:25.956Z,6.10
2018-08-03T05:36:53.554Z,5.97
2018-08-03T05:39:22.116Z,6.10
2018-08-03T05:41:49.959Z,5.50
2018-08-03T05:44:17.237Z,5.50
2018-08-03T05:46:44.806Z,6.13
2018-08-03T05:49:12.867Z,6.27
2018-08-03T05:51:39.805Z,5.53
2018-08-03T05:54:07.499Z,5.50
2018-08-03T05:56:34.573Z,5.67
2018-08-03T05:59:01.655Z,5.93
2018-08-03T06:01:28.773Z,5.43
2018-08-03T06:03:56.289Z,5.33
2018-08-03T06:06:23.127Z,5.20
2018-08-03T06:08:50.040Z,5.70
2018-08-03T06:11:16.886Z,5.20
2018-08-03T06:13:43.723Z,4.67
2018-08-03T06:16:10.635Z,4.93
2018-08-03T06:18:37.664Z,5.20
2018-08-03T06:21:05.824Z,4.70
2018-08-03T06:23:32.734Z,4.53
2018-08-03T06:25:59.718Z,5.00
2018-08-03T06:28:27.693Z,4.80
2018-08-03T06:30:55.599Z,4.83
2018-08-03T06:33:23.224Z,4.50
2018-08-03T06:35:50.281Z,4.93
2018-08-03T06:38:17.534Z,5.23
2018-08-03T06:40:45.492Z,4.90
2018-08-03T06:43:12.343Z,5.27
2018-08-03T06:45:39.542Z,5.73
2018-08-03T06:48:06.421Z,6.50
2018-08-03T06:50:33.313Z,6.17
2018-08-03T06:53:00.851Z,6.07
2018-08-03T06:55:27.691Z,6.70
2018-08-03T06:57:54.644Z,5.90
2018-08-03T07:00:21.864Z,6.27
2018-08-03T07:02:48.990Z,6.53
2018-08-03T07:05:16.700Z,7.57
2018-08-03T07:07:43.574Z,7.67
2018-08-03T07:10:10.729Z,6.63
2018-08-03T07:12:37.810Z,7.00
2018-08-03T07:15:06.330Z,7.30
2018-08-03T07:17:33.370Z,7.13
2018-08-03T07:20:00.290Z,8.53
2018-08-03T07:22:27.104Z,7.37
2018-08-03T07:24:54.598Z,7.27
2018-08-03T07:27:21.496Z,8.67
2018-08-03T07:29:48.374Z,7.70
2018-08-03T07:32:15.376Z,7.97
2018-08-03T07:34:42.797Z,7.30
2018-08-03T07:37:10.421Z,8.23
2018-08-03T07:39:37.450Z,7.87
2018-08-03T07:42:04.442Z,7.60
2018-08-03T07:44:32.093Z,8.30
2018-08-03T07:46:59.023Z,8.20
2018-08-03T07:49:27.287Z,7.53
2018-08-03T07:51:54.087Z,7.53
2018-08-03T07:57:09.871Z,7.37
2018-08-03T07:59:36.691Z,7.00
2018-08-03T08:02:03.470Z,7.47
2018-08-03T08:04:30.289Z,7.60
2018-08-03T08:06:57.063Z,6.77
2018-08-03T08:09:23.925Z,7.23
2018-08-03T08:11:50.924Z,7.27
2018-08-03T08:14:17.702Z,6.77
2018-08-03T08:16:44.581Z,6.03
2018-08-03T08:19:11.438Z,7.17
2018-08-03T08:21:38.334Z,6.23
2018-08-03T08:24:05.088Z,6.63
2018-08-03T08:26:31.888Z,6.57
2018-08-03T08:28:58.755Z,5.60
2018-08-03T08:31:25.800Z,6.80
2018-08-03T08:33:52.712Z,6.80
2018-08-03T08:36:19.553Z,5.80
2018-08-03T08:38:46.377Z,6.27
2018-08-03T08:41:13.082Z,6.33
2018-08-03T08:43:39.930Z,5.53
2018-08-03T08:46:06.917Z,5.23
2018-08-03T08:48:33.859Z,5.03
2018-08-03T08:51:00.641Z,4.50
2018-08-03T08:53:27.429Z,4.63
2018-08-03T08:55:54.240Z,4.10
2018-08-03T08:58:21.109Z,4.40
2018-08-03T09:00:47.974Z,4.27
2018-08-03T09:03:14.730Z,4.60
2018-08-03T09:05:41.508Z,3.97
2018-08-03T09:08:08.293Z,4.30
2018-08-03T09:10:35.155Z,3.90
2018-08-03T09:13:02.054Z,3.70
2018-08-03T09:15:28.952Z,3.93
2018-08-03T09:17:55.795Z,3.73
2018-08-03T09:20:22.691Z,3.87
2018-08-03T09:22:49.566Z,3.90
2018-08-03T09:25:16.483Z,3.83
2018-08-03T09:27:43.299Z,3.60
2018-08-03T09:30:10.237Z,3.70
2018-08-03T09:32:37.137Z,2.87
2018-08-03T09:35:03.958Z,3.70
2018-08-03T09:37:30.786Z,3.77
2018-08-03T09:39:57.676Z,3.10
2018-08-03T09:42:24.612Z,3.57
2018-08-03T09:44:51.660Z,3.30
2018-08-03T09:47:18.504Z,3.25
2018-08-03T09:49:45.348Z,3.43
2018-08-03T09:52:12.166Z,3.73
2018-08-03T09:54:38.943Z,3.30
2018-08-03T09:57:05.887Z,3.25
2018-08-03T09:59:32.740Z,3.70
2018-08-03T10:01:59.638Z,3.30
2018-08-03T10:04:26.532Z,3.97
2018-08-03T10:06:53.408Z,3.70
2018-08-03T10:09:20.238Z,3.07
2018-08-03T10:11:47.095Z,3.50
2018-08-03T10:14:13.916Z,3.80
2018-08-03T10:16:40.705Z,3.10
2018-08-03T10:19:07.476Z,3.13
2018-08-03T10:21:34.305Z,3.53
2018-08-03T10:24:01.119Z,4.07
2018-08-03T10:26:28.012Z,3.30
2018-08-03T10:28:55.009Z,4.03
2018-08-03T10:31:21.911Z,3.80
2018-08-03T10:33:48.829Z,4.17
2018-08-03T10:36:15.778Z,3.77
2018-08-03T10:38:42.578Z,3.80
2018-08-03T10:41:09.379Z,3.67
2018-08-03T10:43:36.175Z,3.77
2018-08-03T10:46:02.977Z,4.17
2018-08-03T10:48:29.708Z,3.93
2018-08-03T10:50:56.462Z,4.10
2018-08-03T10:53:23.359Z,7.83
2018-08-03T10:55:50.195Z,6.62
2018-08-03T10:58:17.054Z,7.08
2018-08-03T11:00:44.022Z,6.03
2018-08-03T11:03:10.834Z,7.03
2018-08-03T11:05:37.606Z,5.30
2018-08-03T11:08:04.382Z,4.87
2018-08-03T11:10:31.204Z,5.40
2018-08-03T11:12:57.984Z,6.00
2018-08-03T11:15:24.820Z,5.05
2018-08-03T11:17:51.706Z,5.03
2018-08-03T11:20:18.502Z,4.90
2018-08-03T11:22:45.465Z,4.80
2018-08-03T11:25:12.200Z,4.72
2018-08-03T11:27:39.036Z,4.83
2018-08-03T11:30:05.933Z,4.83
2018-08-03T11:32:32.728Z,5.25
2018-08-03T11:34:59.546Z,5.55
2018-08-03T11:37:26.368Z,4.70
2018-08-03T11:39:53.159Z,4.75
2018-08-03T11:42:19.860Z,4.60
2018-08-03T11:44:46.780Z,5.08
2018-08-03T11:47:13.894Z,4.50
2018-08-03T11:49:41.792Z,5.10
2018-08-03T11:52:08.729Z,4.83
2018-08-03T11:54:35.751Z,4.85
2018-08-03T11:57:02.628Z,4.50
2018-08-03T11:59:29.557Z,4.55
2018-08-03T12:01:56.625Z,4.53
2018-08-03T12:04:23.562Z,4.60
2018-08-03T12:06:50.413Z,4.28
2018-08-03T12:09:17.219Z,4.80
2018-08-03T12:11:44.073Z,4.83
2018-08-03T12:14:10.959Z,4.27
2018-08-03T12:16:37.828Z,4.78
2018-08-03T12:19:04.754Z,4.53
2018-08-03T12:21:31.540Z,4.35
2018-08-03T12:23:58.496Z,4.35
2018-08-03T12:26:25.254Z,3.67
2018-08-03T12:28:52.076Z,4.00
2018-08-03T12:31:19.055Z,3.87
2018-08-03T12:33:46.131Z,4.12
2018-08-03T12:36:12.928Z,4.83
2018-08-03T12:38:39.890Z,3.60
2018-08-03T12:41:06.857Z,3.52
2018-08-03T12:43:33.930Z,3.53
2018-08-03T12:46:00.740Z,3.77
2018-08-03T12:48:27.697Z,3.90
2018-08-03T12:50:54.598Z,3.70
2018-08-03T12:53:21.577Z,4.05
2018-08-03T12:55:48.485Z,3.87
2018-08-03T12:58:15.478Z,3.58
2018-08-03T13:00:42.309Z,3.40
2018-08-03T13:03:09.132Z,3.92
2018-08-03T13:05:35.932Z,3.50
2018-08-03T13:08:02.968Z,3.60
2018-08-03T13:10:29.571Z,4.05
2018-08-03T13:12:56.485Z,3.40
2018-08-03T13:15:23.294Z,3.70
2018-08-03T13:17:50.140Z,3.30
2018-08-03T13:20:17.015Z,3.40
2018-08-03T13:22:43.800Z,3.40
2018-08-03T13:25:10.575Z,3.80
2018-08-03T13:27:37.461Z,3.85
2018-08-03T13:30:04.217Z,3.72
2018-08-03T13:32:30.944Z,3.17
2018-08-03T13:34:57.636Z,3.58
2018-08-03T13:37:24.436Z,3.60
2018-08-03T13:39:51.218Z,3.33
2018-08-03T13:42:17.990Z,3.00
2018-08-03T13:44:44.867Z,3.52
2018-08-03T13:47:11.702Z,3.67
2018-08-03T13:49:38.622Z,3.65
2018-08-03T13:52:05.414Z,3.50
2018-08-03T13:54:32.155Z,3.77
2018-08-03T13:56:58.994Z,3.27
2018-08-03T13:59:25.814Z,3.10
2018-08-03T14:01:52.665Z,3.60
2018-08-03T14:04:19.758Z,3.37
2018-08-03T14:06:46.866Z,4.12
2018-08-03T14:09:13.711Z,3.33
2018-08-03T14:11:40.604Z,3.25
2018-08-03T14:14:07.470Z,3.40
2018-08-03T14:16:34.262Z,3.05
2018-08-03T14:19:01.014Z,2.90
2018-08-03T14:21:27.805Z,3.20
2018-08-03T14:23:54.562Z,3.30
2018-08-03T14:26:21.428Z,3.08
2018-08-03T14:28:48.305Z,3.40
2018-08-03T14:31:15.365Z,2.85
2018-08-03T14:33:42.176Z,2.95
2018-08-03T14:36:08.915Z,2.58
2018-08-03T14:38:35.674Z,3.37
2018-08-03T14:41:02.552Z,3.02
2018-08-03T14:43:29.460Z,2.60
2018-08-03T14:45:56.395Z,3.37
2018-08-03T14:48:23.565Z,2.70
2018-08-03T14:50:50.679Z,3.10
2018-08-03T14:53:17.817Z,3.15
2018-08-03T14:55:44.763Z,3.27
2018-08-03T14:58:11.572Z,2.62
2018-08-03T15:00:38.362Z,2.52
2018-08-03T15:03:05.174Z,2.60
2018-08-03T15:05:32.055Z,2.98
2018-08-03T15:07:58.982Z,2.83
2018-08-03T15:10:26.013Z,2.77
2018-08-03T15:12:52.934Z,2.92
2018-08-03T15:15:19.991Z,3.12
2018-08-03T15:17:46.935Z,2.80
2018-08-03T15:20:13.697Z,3.20
2018-08-03T15:22:40.771Z,2.92
2018-08-03T15:25:07.538Z,2.70
2018-08-03T15:27:34.352Z,2.80
2018-08-03T15:30:01.233Z,2.95
2018-08-03T15:32:28.438Z,2.80
2018-08-03T15:34:55.286Z,2.72
2018-08-03T15:37:22.079Z,3.10
2018-08-03T15:39:48.948Z,3.30
2018-08-03T15:42:15.756Z,3.55
2018-08-03T15:44:42.651Z,2.83
2018-08-03T15:47:09.382Z,3.05
2018-08-03T15:49:36.221Z,3.47
2018-08-03T15:52:02.979Z,3.37
2018-08-03T15:54:29.790Z,3.35
2018-08-03T15:56:56.612Z,3.35
2018-08-03T15:59:23.495Z,3.08
2018-08-03T16:01:50.324Z,3.10
2018-08-03T16:04:17.142Z,3.47
2018-08-03T16:06:48.871Z,3.12
2018-08-03T16:09:15.739Z,2.50
2018-08-03T16:11:42.515Z,3.47
2018-08-03T16:14:09.729Z,2.70
2018-08-03T16:16:36.539Z,3.10
2018-08-03T16:19:03.241Z,3.12
2018-08-03T16:21:30.056Z,2.83
2018-08-03T16:23:56.889Z,3.25
2018-08-03T16:26:23.589Z,2.90
2018-08-03T16:28:50.436Z,2.58
2018-08-03T16:31:17.505Z,3.05
2018-08-03T16:33:44.313Z,2.60
2018-08-03T16:36:11.115Z,2.60
2018-08-03T16:38:37.951Z,2.50
2018-08-03T16:41:04.799Z,2.80
2018-08-03T16:43:31.596Z,2.40
2018-08-03T16:45:58.383Z,2.55
2018-08-03T16:48:25.168Z,2.50
2018-08-03T16:50:51.986Z,2.47
2018-08-03T16:53:18.699Z,2.47
2018-08-03T16:55:45.505Z,2.20
2018-08-03T16:58:12.285Z,2.30
2018-08-03T17:00:39.156Z,2.30
2018-08-03T17:03:05.887Z,2.30
2018-08-03T17:05:32.675Z,2.25
2018-08-03T17:07:59.483Z,2.60
2018-08-03T17:10:26.221Z,2.10
2018-08-03T17:12:53.038Z,1.90
2018-08-03T17:15:19.935Z,1.92
2018-08-03T17:17:46.752Z,2.40
2018-08-03T17:20:13.591Z,2.00
2018-08-03T17:22:40.362Z,2.50
2018-08-03T17:25:07.262Z,2.08
2018-08-03T17:27:33.986Z,2.33
2018-08-03T17:30:00.728Z,1.92
2018-08-03T17:32:27.499Z,2.25
2018-08-03T17:34:54.234Z,2.35
2018-08-03T17:37:21.022Z,2.30
2018-08-03T17:39:48.098Z,2.00
2018-08-03T17:42:14.954Z,2.20
2018-08-03T17:44:41.674Z,2.25
2018-08-03T17:47:08.542Z,2.20
2018-08-03T17:49:35.391Z,2.15
2018-08-03T17:52:02.294Z,2.40
2018-08-03T17:54:29.177Z,2.02
2018-08-03T17:56:56.022Z,1.90
2018-08-03T17:59:22.752Z,1.90
2018-08-03T18:01:49.541Z,1.62
2018-08-03T18:04:16.348Z,1.95
2018-08-03T18:06:43.131Z,1.80
2018-08-03T18:09:09.954Z,2.02
2018-08-03T18:11:36.666Z,1.67
2018-08-03T18:14:03.495Z,1.70
2018-08-03T18:16:30.270Z,2.00
2018-08-03T18:18:56.971Z,1.92
2018-08-03T18:21:23.776Z,1.90
2018-08-03T18:23:50.512Z,1.70
2018-08-03T18:26:17.219Z,2.00
2018-08-03T18:28:43.941Z,1.90
2018-08-03T18:31:10.923Z,1.87
2018-08-03T18:33:37.745Z,2.08
2018-08-03T18:36:04.581Z,2.10
2018-08-03T18:38:31.426Z,1.80
2018-08-03T18:40:58.205Z,1.92
2018-08-03T18:43:25.052Z,2.00
2018-08-03T18:45:51.768Z,2.12
2018-08-03T18:48:18.556Z,1.90
2018-08-03T18:50:45.385Z,2.00
2018-08-03T18:53:12.177Z,1.95
2018-08-03T18:55:38.963Z,2.05
2018-08-03T18:58:05.711Z,1.90
2018-08-03T19:00:32.558Z,1.87
2018-08-03T19:02:59.323Z,2.00
2018-08-03T19:05:26.045Z,1.90
2018-08-03T19:07:52.978Z,2.13
2018-08-03T19:10:19.781Z,1.60
2018-08-03T19:12:46.577Z,1.80
2018-08-03T19:15:13.372Z,1.87
2018-08-03T19:17:40.126Z,2.02
2018-08-03T19:20:07.843Z,2.15
2018-08-03T19:22:34.620Z,2.00
2018-08-03T19:25:01.473Z,2.30
2018-08-03T19:27:28.252Z,2.22
2018-08-03T19:29:55.043Z,2.27
2018-08-03T19:32:21.760Z,2.20
2018-08-03T19:34:48.520Z,2.30
2018-08-03T19:37:15.314Z,2.45
2018-08-03T19:39:42.146Z,2.05
2018-08-03T19:42:08.948Z,1.80
2018-08-03T19:44:35.740Z,1.90
2018-08-03T19:47:02.580Z,1.98
2018-08-03T19:49:29.294Z,2.07
2018-08-03T19:51:56.026Z,2.30
2018-08-03T19:54:22.790Z,1.98
2018-08-03T19:56:49.500Z,1.77
2018-08-03T19:59:16.322Z,2.10
2018-08-03T20:01:43.080Z,1.82
2018-08-03T20:04:10.019Z,2.20
2018-08-03T20:06:37.283Z,2.50
2018-08-03T20:09:04.480Z,1.87
2018-08-03T20:11:31.221Z,2.02
2018-08-03T20:13:57.951Z,2.10
2018-08-03T20:16:24.810Z,2.10
2018-08-03T20:18:51.703Z,2.30
2018-08-03T20:21:18.825Z,2.63
2018-08-03T20:23:45.647Z,2.12
2018-08-03T20:26:12.479Z,2.53
2018-08-03T20:28:39.285Z,2.40
2018-08-03T20:31:06.074Z,2.58
2018-08-03T20:33:32.892Z,2.98
2018-08-03T20:35:59.787Z,2.70
2018-08-03T20:38:26.813Z,2.57
2018-08-03T20:40:53.713Z,3.17
2018-08-03T20:43:20.661Z,3.00
2018-08-03T20:45:47.557Z,3.00
2018-08-03T20:48:14.408Z,2.77
2018-08-03T20:50:41.335Z,2.83
2018-08-03T20:53:08.101Z,2.60
2018-08-03T20:55:34.983Z,2.77
2018-08-03T20:58:02.169Z,3.05
2018-08-03T21:00:29.019Z,2.53
2018-08-03T21:02:55.991Z,2.45
2018-08-03T21:05:23.043Z,2.37
2018-08-03T21:07:49.873Z,2.42
2018-08-03T21:10:16.947Z,2.43
2018-08-03T21:12:43.883Z,2.63
2018-08-03T21:15:10.617Z,2.37
2018-08-03T21:17:37.462Z,2.30
2018-08-03T21:20:04.339Z,2.43
2018-08-03T21:22:31.206Z,2.57
2018-08-03T21:24:58.048Z,2.70
2018-08-03T21:27:25.178Z,2.70
2018-08-03T21:29:52.102Z,3.00
2018-08-03T21:32:18.993Z,2.87
2018-08-03T21:34:45.822Z,2.47
2018-08-03T21:37:12.561Z,2.40
2018-08-03T21:39:39.594Z,3.02
2018-08-03T21:42:06.687Z,2.45
2018-08-03T21:44:33.462Z,2.20
2018-08-03T21:47:00.171Z,2.40
2018-08-03T21:49:27.140Z,2.50
2018-08-03T21:51:53.918Z,2.80
2018-08-03T21:54:20.699Z,2.58
2018-08-03T21:56:47.545Z,2.27
2018-08-03T21:59:14.296Z,2.53
2018-08-03T22:01:41.194Z,2.50
2018-08-03T22:04:08.224Z,2.80
2018-08-03T22:06:34.961Z,3.20
2018-08-03T22:09:01.975Z,2.37
2018-08-03T22:11:28.679Z,2.53
2018-08-03T22:13:55.335Z,2.57
2018-08-03T22:16:22.153Z,2.25
2018-08-03T22:18:48.983Z,3.00
2018-08-03T22:21:15.791Z,2.73
2018-08-03T22:23:42.567Z,2.40
2018-08-03T22:26:09.377Z,3.00
2018-08-03T22:28:36.169Z,2.63
2018-08-03T22:31:03.083Z,2.60
2018-08-03T22:33:29.899Z,2.97
2018-08-03T22:35:56.717Z,2.90
2018-08-03T22:38:23.720Z,2.67
2018-08-03T22:40:50.490Z,2.67
2018-08-03T22:43:17.338Z,2.40
2018-08-03T22:45:44.064Z,2.87
2018-08-03T22:48:10.867Z,2.97
2018-08-03T22:50:38.014Z,2.77
2018-08-03T22:53:04.866Z,2.73
2018-08-03T22:55:31.668Z,2.40
2018-08-03T22:57:58.460Z,2.70
2018-08-03T23:00:25.224Z,2.57
2018-08-03T23:02:51.969Z,2.67
2018-08-03T23:05:18.695Z,2.70
2018-08-03T23:07:45.443Z,2.57
2018-08-03T23:10:12.234Z,2.70
2018-08-03T23:12:39.085Z,2.43
2018-08-03T23:15:06.297Z,2.17
2018-08-03T23:17:33.072Z,2.77
2018-08-03T23:19:59.834Z,2.60
2018-08-03T23:22:26.546Z,2.60
2018-08-03T23:24:53.477Z,2.60
2018-08-03T23:27:20.450Z,2.40
2018-08-03T23:29:47.442Z,2.60
2018-08-03T23:32:14.251Z,2.67
2018-08-03T23:34:41.139Z,2.73
2018-08-03T23:37:07.925Z,2.53
2018-08-03T23:39:34.690Z,2.83
2018-08-03T23:42:01.420Z,2.73
2018-08-03T23:44:28.131Z,2.53
2018-08-03T23:46:54.840Z,3.03
2018-08-03T23:49:21.685Z,2.90
2018-08-03T23:51:48.548Z,2.57
2018-08-03T23:54:15.305Z,2.80
2018-08-03T23:56:42.045Z,2.77
2018-08-03T23:59:08.771Z,2.70
